Time;durP1;ratioP1;P1;durP2;ratioP2;P2;SDS_P1;SDS_P2;PMS_P1;PMS_P2;Temp;Humidity;BMP_temperature;BMP_pressure;BME280_temperature;BME280_humidity;BME280_pressure;Samples;Min_cycle;Max_cycle;Signal;HPM_P1;HPM_P2
2021/01/05 00:02:11;;;;;;;15.07;8.47;;;2.20;99.90;;;;;;4930447;29;20694;-86
2021/01/05 00:04:44;;;;;;;14.67;8.00;;;2.20;99.90;;;;;;4928896;29;20453;-86
2021/01/05 00:07:16;;;;;;;15.17;8.50;;;2.20;99.90;;;;;;4931082;29;20703;-84
2021/01/05 00:09:44;;;;;;;13.87;8.43;;;2.10;99.90;;;;;;4913338;29;20459;-87
2021/01/05 00:12:17;;;;;;;19.70;9.17;;;2.20;99.90;;;;;;4942052;28;20487;-84
2021/01/05 00:14:48;;;;;;;15.37;9.70;;;2.30;99.90;;;;;;4925108;29;20549;-87
2021/01/05 00:17:20;;;;;;;20.43;8.87;;;2.30;99.90;;;;;;4930198;29;20759;-84
2021/01/05 00:19:51;;;;;;;21.73;10.37;;;2.20;99.90;;;;;;4927382;29;20531;-85
2021/01/05 00:22:17;;;;;;;13.30;8.13;;;2.20;99.90;;;;;;4924565;29;20463;-85
2021/01/05 00:24:43;;;;;;;20.43;11.60;;;2.20;99.90;;;;;;4932490;29;20457;-85
2021/01/05 00:27:11;;;;;;;17.17;9.03;;;2.30;99.90;;;;;;4929960;28;20452;-86
2021/01/05 00:29:42;;;;;;;18.03;10.13;;;2.20;99.90;;;;;;4928193;29;20453;-86
2021/01/05 00:32:24;;;;;;;11.20;5.83;;;2.20;99.90;;;;;;4928850;29;20480;-85
2021/01/05 00:34:54;;;;;;;22.20;8.20;;;2.20;99.90;;;;;;4933916;29;20447;-85
2021/01/05 00:37:19;;;;;;;24.43;9.60;;;2.10;99.90;;;;;;4928408;29;20465;-86
2021/01/05 00:39:48;;;;;;;20.57;8.90;;;2.20;99.90;;;;;;4911870;29;20448;-85
2021/01/05 00:42:25;;;;;;;15.87;9.17;;;2.30;99.90;;;;;;4929467;29;20224;-88
2021/01/05 00:44:54;;;;;;;19.13;10.30;;;2.20;99.90;;;;;;4930911;29;20441;-85
2021/01/05 00:47:26;;;;;;;17.27;9.20;;;2.20;99.90;;;;;;4932552;29;20521;-86
2021/01/05 00:49:52;;;;;;;13.00;7.60;;;2.20;99.90;;;;;;4929494;29;20439;-85
2021/01/05 00:52:17;;;;;;;14.07;8.07;;;2.20;99.90;;;;;;4934747;29;20563;-86
2021/01/05 00:54:43;;;;;;;20.10;9.43;;;2.20;99.90;;;;;;4929396;29;20706;-84
2021/01/05 00:57:11;;;;;;;18.60;9.23;;;2.10;99.90;;;;;;4914548;29;20442;-85
2021/01/05 00:59:40;;;;;;;15.37;8.10;;;2.20;99.90;;;;;;4931456;29;20240;-84
2021/01/05 01:02:10;;;;;;;11.80;7.53;;;2.10;99.90;;;;;;4932855;29;20495;-83
2021/01/05 01:04:44;;;;;;;20.27;10.20;;;2.10;99.90;;;;;;4914043;29;20910;-84
2021/01/05 01:07:10;;;;;;;19.83;9.17;;;2.10;99.90;;;;;;4929632;29;20435;-86
2021/01/05 01:09:58;;;;;;;19.90;10.60;;;2.20;99.90;;;;;;4932642;29;20453;-85
2021/01/05 01:12:26;;;;;;;14.90;9.07;;;2.20;99.90;;;;;;4941853;29;20211;-87
2021/01/05 01:14:56;;;;;;;13.13;7.33;;;2.20;99.90;;;;;;4925863;29;20438;-86
2021/01/05 01:17:23;;;;;;;16.97;9.77;;;2.10;99.90;;;;;;4930856;29;20447;-87
2021/01/05 01:19:57;;;;;;;17.60;10.17;;;2.60;99.90;;;;;;4933127;29;20450;-87
2021/01/05 01:22:25;;;;;;;17.03;9.90;;;2.10;99.90;;;;;;4934405;29;21072;-86
2021/01/05 01:24:53;;;;;;;17.93;8.53;;;2.20;99.90;;;;;;4933679;29;20429;-86
2021/01/05 01:27:22;;;;;;;19.87;10.93;;;2.20;99.90;;;;;;4934444;29;20440;-86
2021/01/05 01:29:48;;;;;;;20.17;10.97;;;2.30;99.90;;;;;;4934559;29;20449;-86
2021/01/05 01:32:16;;;;;;;23.03;11.50;;;2.40;99.90;;;;;;4934229;29;20991;-85
2021/01/05 01:34:45;;;;;;;20.97;11.50;;;2.50;99.90;;;;;;4916093;29;20817;-86
2021/01/05 01:37:19;;;;;;;18.33;9.33;;;2.50;99.90;;;;;;4933972;29;21009;-86
2021/01/05 01:39:48;;;;;;;18.33;11.10;;;2.60;99.90;;;;;;4934594;29;20447;-83
2021/01/05 01:42:19;;;;;;;19.43;10.80;;;2.70;99.90;;;;;;4932836;29;20473;-84
2021/01/05 01:44:49;;;;;;;20.10;11.10;;;2.70;99.90;;;;;;4946614;28;20450;-84
2021/01/05 01:47:38;;;;;;;17.53;11.37;;;2.70;99.90;;;;;;4932056;29;20519;-86
2021/01/05 01:50:12;;;;;;;22.30;10.50;;;2.70;99.90;;;;;;4931498;29;21144;-83
2021/01/05 01:52:56;;;;;;;16.40;10.70;;;2.60;99.90;;;;;;4933630;29;20746;-84
2021/01/05 01:55:50;;;;;;;27.23;11.37;;;2.50;99.90;;;;;;4931194;29;20442;-88
2021/01/05 01:58:53;;;;;;;15.73;9.43;;;2.50;99.90;;;;;;4945536;28;20439;-85
2021/01/05 02:01:24;;;;;;;19.03;11.13;;;2.40;99.90;;;;;;4915508;29;20451;-85
2021/01/05 02:04:27;;;;;;;21.67;10.27;;;2.50;99.90;;;;;;4931764;29;20464;-86
2021/01/05 02:07:08;;;;;;;18.47;10.17;;;2.60;99.90;;;;;;4945264;28;20427;-86
2021/01/05 02:09:56;;;;;;;22.50;10.43;;;2.60;99.90;;;;;;4946330;28;20444;-85
2021/01/05 02:12:34;;;;;;;18.60;9.00;;;2.60;99.90;;;;;;4932787;29;20635;-85
2021/01/05 02:15:18;;;;;;;16.50;8.67;;;2.50;99.90;;;;;;4934915;29;20431;-86
2021/01/05 02:18:05;;;;;;;20.97;11.47;;;2.60;99.90;;;;;;4932049;29;20443;-87
2021/01/05 02:21:08;;;;;;;20.50;11.40;;;2.60;99.90;;;;;;4933406;29;20438;-86
2021/01/05 02:24:06;;;;;;;18.77;10.40;;;2.70;99.90;;;;;;4935658;29;20472;-86
2021/01/05 02:26:52;;;;;;;16.70;9.90;;;2.70;99.90;;;;;;4930676;29;20929;-86
2021/01/05 02:29:30;;;;;;;14.73;10.17;;;2.70;99.90;;;;;;4902323;29;20499;-84
2021/01/05 02:32:34;;;;;;;24.93;11.50;;;2.60;99.90;;;;;;4932909;29;20846;-85
2021/01/05 02:35:38;;;;;;;18.53;10.53;;;2.70;99.90;;;;;;4895917;29;20507;-88
2021/01/05 02:38:16;;;;;;;17.90;11.87;;;2.70;99.90;;;;;;4931785;29;20534;-85
2021/01/05 02:41:06;;;;;;;20.13;10.87;;;2.80;99.90;;;;;;4930513;29;20443;-89
2021/01/05 02:43:46;;;;;;;21.00;10.10;;;2.70;99.90;;;;;;4946844;28;20550;-88
2021/01/05 02:46:20;;;;;;;21.07;10.83;;;2.70;99.90;;;;;;4933987;29;20470;-86
2021/01/05 02:49:26;;;;;;;28.70;11.63;;;2.60;99.90;;;;;;4934387;29;20447;-85
2021/01/05 02:52:01;;;;;;;19.93;10.97;;;2.50;99.90;;;;;;4933852;29;20496;-87
2021/01/05 02:54:35;;;;;;;24.60;12.50;;;2.50;99.90;;;;;;4933147;29;20505;-87
2021/01/05 02:57:19;;;;;;;24.13;10.10;;;2.60;99.90;;;;;;4931126;29;21120;-86
2021/01/05 03:00:12;;;;;;;21.33;10.47;;;2.50;99.90;;;;;;4930128;29;20831;-85
2021/01/05 03:03:01;;;;;;;19.83;9.80;;;2.60;99.90;;;;;;4925036;29;20474;-86
2021/01/05 03:05:33;;;;;;;18.70;11.90;;;2.60;99.90;;;;;;4950716;28;20475;-88
2021/01/05 03:08:06;;;;;;;22.00;11.13;;;2.60;99.90;;;;;;4933576;28;20454;-83
2021/01/05 03:11:02;;;;;;;21.30;11.27;;;2.60;99.90;;;;;;4940891;28;20998;-84
2021/01/05 03:13:39;;;;;;;20.53;11.50;;;2.60;99.90;;;;;;4928452;29;20511;-86
2021/01/05 03:16:22;;;;;;;21.50;10.60;;;2.70;99.90;;;;;;4927821;29;20457;-84
2021/01/05 03:19:18;;;;;;;20.80;10.80;;;2.70;99.90;;;;;;4928506;29;20435;-85
2021/01/05 03:21:51;;;;;;;20.70;12.93;;;2.70;99.90;;;;;;4928406;29;20473;-82
2021/01/05 03:24:20;;;;;;;21.60;11.27;;;2.80;99.90;;;;;;4927771;29;20507;-85
2021/01/05 03:26:49;;;;;;;20.97;11.50;;;2.90;99.90;;;;;;4928754;29;20808;-81
2021/01/05 03:29:17;;;;;;;23.13;11.50;;;2.90;99.90;;;;;;4924623;29;20439;-86
2021/01/05 03:31:56;;;;;;;21.93;10.53;;;3.00;99.90;;;;;;4927953;29;20475;-86
2021/01/05 03:34:22;;;;;;;18.93;11.17;;;3.00;99.90;;;;;;4922833;29;20478;-87
2021/01/05 03:36:48;;;;;;;20.27;12.47;;;3.10;99.90;;;;;;4927271;29;20450;-83
2021/01/05 03:39:14;;;;;;;17.60;10.50;;;3.10;99.90;;;;;;4928270;29;20202;-84
2021/01/05 03:41:41;;;;;;;22.20;11.63;;;3.10;99.90;;;;;;4928337;29;20793;-85
2021/01/05 03:44:09;;;;;;;22.53;11.87;;;3.10;99.90;;;;;;4917469;29;20468;-87
2021/01/05 03:46:37;;;;;;;21.40;11.10;;;3.20;99.90;;;;;;4941515;28;20486;-83
2021/01/05 03:49:14;;;;;;;23.67;12.03;;;3.10;99.90;;;;;;4928609;29;20448;-86
2021/01/05 03:51:40;;;;;;;17.23;11.00;;;3.00;99.90;;;;;;4930709;29;20922;-86
2021/01/05 03:54:08;;;;;;;25.47;12.50;;;3.10;99.90;;;;;;4944021;28;20512;-89
2021/01/05 03:56:34;;;;;;;19.70;10.27;;;3.00;99.90;;;;;;4926594;29;20193;-84
2021/01/05 03:59:00;;;;;;;24.53;12.30;;;3.10;99.90;;;;;;4926196;29;20529;-85
2021/01/05 04:01:25;;;;;;;21.07;11.33;;;3.10;99.90;;;;;;4907186;29;20292;-83
2021/01/05 04:03:51;;;;;;;22.13;11.13;;;3.10;99.90;;;;;;4925995;29;20243;-86
2021/01/05 04:06:20;;;;;;;20.40;10.63;;;3.20;99.90;;;;;;4927494;29;20735;-86
2021/01/05 04:08:49;;;;;;;17.20;10.40;;;3.20;99.90;;;;;;4926582;29;20599;-85
2021/01/05 04:11:22;;;;;;;20.83;11.17;;;3.10;99.90;;;;;;4926050;29;20556;-87
2021/01/05 04:13:51;;;;;;;19.70;11.23;;;3.10;99.90;;;;;;4926407;29;20732;-86
2021/01/05 04:16:17;;;;;;;19.00;11.93;;;3.10;99.90;;;;;;4926667;29;20437;-87
2021/01/05 04:18:47;;;;;;;24.10;12.97;;;3.10;99.90;;;;;;4909062;29;20483;-84
2021/01/05 04:21:20;;;;;;;20.10;11.50;;;3.10;99.90;;;;;;4923677;29;20302;-88
2021/01/05 04:23:56;;;;;;;20.17;11.13;;;3.00;99.90;;;;;;4923599;29;20491;-83
2021/01/05 04:26:32;;;;;;;23.13;11.27;;;3.00;99.90;;;;;;4922368;29;21194;-86
2021/01/05 04:28:58;;;;;;;23.47;10.87;;;3.00;99.90;;;;;;4897134;29;20803;-85
2021/01/05 04:31:26;;;;;;;23.67;12.27;;;3.00;99.90;;;;;;4930078;28;20503;-83
2021/01/05 04:34:00;;;;;;;19.93;11.50;;;3.00;99.90;;;;;;4937586;29;20530;-87
2021/01/05 04:36:25;;;;;;;20.50;11.70;;;3.00;99.90;;;;;;4959467;28;20462;-85
2021/01/05 04:38:53;;;;;;;24.13;13.10;;;2.90;99.90;;;;;;4932189;29;20440;-86
2021/01/05 04:41:31;;;;;;;19.33;11.07;;;3.00;99.90;;;;;;4940377;29;20188;-82
2021/01/05 04:44:07;;;;;;;23.33;11.80;;;2.90;99.90;;;;;;4939168;29;20461;-83
2021/01/05 04:46:51;;;;;;;20.63;11.00;;;2.80;99.90;;;;;;4945159;28;20779;-87
2021/01/05 04:50:02;;;;;;;18.27;10.37;;;2.80;99.90;;;;;;4940501;28;20908;-84
2021/01/05 04:53:09;;;;;;;23.00;11.73;;;2.90;99.90;;;;;;4939307;29;20479;-86
2021/01/05 04:55:59;;;;;;;19.87;11.60;;;3.00;99.90;;;;;;4866200;29;20580;-84
2021/01/05 04:58:35;;;;;;;26.07;11.20;;;3.00;99.90;;;;;;4940224;29;20470;-87
2021/01/05 05:01:12;;;;;;;25.80;11.63;;;3.10;99.90;;;;;;4941777;29;20428;-84
2021/01/05 05:03:50;;;;;;;17.13;10.20;;;3.00;99.90;;;;;;4951654;28;20517;-85
2021/01/05 05:06:42;;;;;;;18.97;10.70;;;3.00;99.90;;;;;;4940031;29;20431;-83
2021/01/05 05:09:36;;;;;;;19.63;11.43;;;3.00;99.90;;;;;;4939514;29;20436;-84
2021/01/05 05:12:40;;;;;;;19.70;11.73;;;3.00;99.90;;;;;;4932775;29;20464;-84
2021/01/05 05:15:42;;;;;;;17.73;10.93;;;2.90;99.90;;;;;;4946504;28;20443;-84
2021/01/05 05:18:29;;;;;;;20.90;12.10;;;3.00;99.90;;;;;;4930884;29;20518;-86
2021/01/05 05:21:08;;;;;;;24.63;10.87;;;2.80;99.90;;;;;;4929774;29;20518;-85
2021/01/05 05:24:13;;;;;;;17.90;11.10;;;2.90;99.90;;;;;;4931040;28;20450;-83
2021/01/05 05:26:50;;;;;;;18.97;11.00;;;2.90;99.90;;;;;;4930523;29;20450;-84
2021/01/05 05:29:36;;;;;;;15.87;10.60;;;2.80;99.90;;;;;;4929376;29;20756;-83
2021/01/05 05:32:20;;;;;;;18.07;11.87;;;3.00;99.90;;;;;;4931238;29;20987;-84
2021/01/05 05:35:26;;;;;;;21.10;11.60;;;3.00;99.90;;;;;;4929075;29;20932;-85
2021/01/05 05:38:05;;;;;;;21.90;11.40;;;3.00;99.90;;;;;;4930000;29;20440;-86
2021/01/05 05:40:53;;;;;;;21.77;12.90;;;2.90;99.90;;;;;;4935834;29;20526;-85
2021/01/05 05:43:35;;;;;;;23.33;13.77;;;3.00;99.90;;;;;;4931297;29;20474;-83
2021/01/05 05:46:26;;;;;;;18.17;10.90;;;3.10;99.90;;;;;;4933420;29;20534;-85
2021/01/05 05:49:31;;;;;;;18.97;11.30;;;3.00;99.90;;;;;;4927170;29;20566;-87
2021/01/05 05:52:02;;;;;;;22.63;11.13;;;3.00;99.90;;;;;;4936240;29;20470;-87
2021/01/05 05:54:28;;;;;;;22.00;10.90;;;3.10;99.90;;;;;;4933050;29;20435;-86
2021/01/05 05:57:17;;;;;;;17.33;10.50;;;3.20;99.90;;;;;;4913822;29;20458;-86
2021/01/05 05:59:51;;;;;;;18.20;9.50;;;3.20;99.90;;;;;;4934795;29;20470;-86
2021/01/05 06:02:23;;;;;;;14.23;9.40;;;3.20;99.90;;;;;;4928017;29;20918;-86
2021/01/05 06:04:49;;;;;;;22.10;11.57;;;3.20;99.90;;;;;;4938677;29;20454;-85
2021/01/05 06:07:15;;;;;;;21.67;11.10;;;3.20;99.90;;;;;;4933314;29;20952;-88
2021/01/05 06:09:41;;;;;;;18.93;10.37;;;3.10;99.90;;;;;;4928013;29;20578;-86
2021/01/05 06:12:07;;;;;;;20.03;9.87;;;3.10;99.90;;;;;;4929964;29;20250;-86
2021/01/05 06:14:33;;;;;;;17.03;9.00;;;3.00;99.90;;;;;;4933902;29;20192;-84
2021/01/05 06:17:01;;;;;;;14.93;10.60;;;3.10;99.90;;;;;;4917818;29;20449;-85
2021/01/05 06:19:27;;;;;;;17.13;10.53;;;3.00;99.90;;;;;;4934196;29;20439;-84
2021/01/05 06:21:53;;;;;;;18.20;10.40;;;3.40;99.90;;;;;;4932147;29;20439;-85
2021/01/05 06:24:21;;;;;;;16.47;10.13;;;3.00;99.90;;;;;;4915880;29;20226;-86
2021/01/05 06:26:47;;;;;;;21.40;10.80;;;3.00;99.90;;;;;;4932280;29;20188;-85
2021/01/05 06:29:21;;;;;;;15.63;10.50;;;3.00;99.90;;;;;;4932662;29;20453;-85
2021/01/05 06:31:49;;;;;;;14.40;9.30;;;3.10;99.90;;;;;;4929170;29;20225;-88
2021/01/05 06:34:15;;;;;;;13.87;9.20;;;3.10;99.90;;;;;;4930306;29;20450;-86
2021/01/05 06:36:41;;;;;;;15.27;9.53;;;3.10;99.90;;;;;;4931473;29;20447;-87
2021/01/05 06:39:10;;;;;;;18.63;11.10;;;3.10;99.90;;;;;;4926675;29;20201;-86
2021/01/05 06:41:35;;;;;;;17.53;9.60;;;3.10;99.90;;;;;;4930903;29;20192;-88
2021/01/05 06:44:06;;;;;;;17.47;10.00;;;3.20;99.90;;;;;;4932641;29;21018;-87
2021/01/05 06:46:32;;;;;;;17.53;10.27;;;3.20;99.90;;;;;;4929079;29;20192;-85
2021/01/05 06:49:00;;;;;;;17.77;9.90;;;3.30;99.90;;;;;;4917127;29;20438;-86
2021/01/05 06:51:31;;;;;;;19.80;11.40;;;3.30;99.90;;;;;;4930433;29;20208;-88
2021/01/05 06:54:00;;;;;;;16.73;9.67;;;3.30;99.90;;;;;;4931856;29;20463;-87
2021/01/05 07:00:03;;;;;;;20.50;11.70;;;3.20;99.90;;;;;;4910324;29;20423;-87
2021/01/05 07:02:28;;;;;;;18.60;11.17;;;3.40;99.90;;;;;;4930144;29;20487;-87
2021/01/05 07:04:57;;;;;;;20.57;10.83;;;3.50;99.90;;;;;;4933281;29;20452;-86
2021/01/05 07:07:26;;;;;;;16.50;10.03;;;3.40;99.90;;;;;;4929093;29;20731;-86
2021/01/05 07:10:00;;;;;;;16.57;9.53;;;3.40;99.90;;;;;;4929605;29;20435;-84
2021/01/05 07:12:26;;;;;;;15.47;9.93;;;3.40;99.90;;;;;;4927949;29;20874;-88
2021/01/05 07:14:52;;;;;;;16.20;10.57;;;3.30;99.90;;;;;;4941545;28;20632;-86
2021/01/05 07:17:17;;;;;;;15.70;9.83;;;3.30;99.90;;;;;;4916329;29;20207;-84
2021/01/05 07:19:46;;;;;;;18.03;10.90;;;3.40;99.90;;;;;;4932349;29;20210;-86
2021/01/05 07:22:14;;;;;;;17.60;10.13;;;3.50;99.90;;;;;;4933876;29;20224;-88
2021/01/05 07:24:43;;;;;;;15.03;9.43;;;3.60;99.90;;;;;;4931869;29;20858;-88
2021/01/05 07:27:09;;;;;;;15.43;10.30;;;3.60;99.90;;;;;;4932481;29;20447;-87
2021/01/05 07:29:45;;;;;;;17.67;11.10;;;3.50;99.90;;;;;;4932175;29;20543;-85
2021/01/05 07:32:10;;;;;;;12.20;7.83;;;3.50;99.90;;;;;;4927337;29;20246;-86
2021/01/05 07:34:44;;;;;;;13.40;9.00;;;3.40;99.90;;;;;;4933384;29;20454;-87
2021/01/05 07:37:16;;;;;;;14.97;9.83;;;3.40;99.90;;;;;;4915757;29;20183;-88
2021/01/05 07:39:45;;;;;;;13.53;9.17;;;3.30;99.90;;;;;;4933337;29;20842;-85
2021/01/05 07:42:16;;;;;;;18.53;10.13;;;3.30;99.90;;;;;;4932650;29;20448;-84
2021/01/05 07:44:46;;;;;;;14.77;8.90;;;3.30;99.90;;;;;;4934342;29;20467;-85
2021/01/05 07:47:12;;;;;;;12.53;9.17;;;3.40;99.90;;;;;;4923458;29;20447;-84
2021/01/05 07:49:45;;;;;;;12.47;8.50;;;3.40;99.90;;;;;;4931655;29;20879;-86
2021/01/05 07:52:32;;;;;;;18.60;10.10;;;3.40;99.90;;;;;;4948459;28;20467;-88
2021/01/05 07:55:02;;;;;;;14.33;9.40;;;3.30;99.90;;;;;;4930834;29;20535;-86
2021/01/05 07:57:27;;;;;;;19.37;9.87;;;3.20;99.90;;;;;;4914762;29;20903;-86
2021/01/05 08:00:09;;;;;;;;;;;;;;;;;;;;;
2021/01/05 08:02:39;;;;;;;14.00;9.33;;;3.30;99.90;;;;;;4925765;29;20230;-84
2021/01/05 08:05:05;;;;;;;12.50;9.07;;;3.40;99.90;;;;;;4933243;29;20541;-85
2021/01/05 08:07:31;;;;;;;12.57;9.10;;;3.50;99.90;;;;;;4931440;29;21018;-85
2021/01/05 08:09:57;;;;;;;15.33;9.13;;;3.50;99.90;;;;;;4902161;29;20439;-86
2021/01/05 08:12:23;;;;;;;12.97;8.73;;;3.50;99.90;;;;;;4933002;29;21886;-85
2021/01/05 08:14:49;;;;;;;14.73;8.30;;;3.50;99.90;;;;;;4934376;29;20664;-87
2021/01/05 08:17:20;;;;;;;14.03;9.20;;;3.50;99.90;;;;;;4931836;29;20231;-84
2021/01/05 08:19:46;;;;;;;17.83;9.43;;;3.50;99.90;;;;;;4930909;29;20575;-86
2021/01/05 08:22:13;;;;;;;20.30;10.70;;;3.40;99.90;;;;;;4926122;29;20534;-88
2021/01/05 08:24:45;;;;;;;16.23;8.97;;;3.50;99.90;;;;;;4931993;29;20429;-87
2021/01/05 08:27:12;;;;;;;16.50;9.00;;;3.50;99.90;;;;;;4937381;29;21290;-88
2021/01/05 08:29:44;;;;;;;16.57;9.77;;;3.60;99.90;;;;;;4933840;29;20478;-84
2021/01/05 08:32:10;;;;;;;14.00;8.83;;;3.60;99.90;;;;;;4943674;28;20479;-88
2021/01/05 08:34:44;;;;;;;14.47;9.23;;;3.40;99.90;;;;;;4934779;29;20502;-86
2021/01/05 08:37:10;;;;;;;14.47;9.17;;;3.40;99.90;;;;;;4938894;29;20194;-88
2021/01/05 08:39:38;;;;;;;15.73;9.10;;;3.40;99.90;;;;;;4932118;29;20440;-86
2021/01/05 08:42:07;;;;;;;14.07;8.67;;;3.50;99.90;;;;;;4933664;28;20243;-86
2021/01/05 08:44:33;;;;;;;15.63;9.20;;;3.50;99.90;;;;;;4928982;29;20429;-87
2021/01/05 08:47:03;;;;;;;13.70;9.40;;;3.60;99.90;;;;;;4932221;28;20467;-84
2021/01/05 08:49:34;;;;;;;15.10;8.97;;;3.50;99.90;;;;;;4935869;29;20195;-84
2021/01/05 08:52:03;;;;;;;15.30;9.17;;;3.50;99.90;;;;;;4936323;29;20464;-85
2021/01/05 08:54:28;;;;;;;14.30;8.90;;;3.50;99.90;;;;;;4933078;29;20969;-83
2021/01/05 08:57:00;;;;;;;20.63;10.57;;;3.50;99.90;;;;;;4934698;29;20435;-87
2021/01/05 08:59:29;;;;;;;16.83;9.27;;;3.60;99.90;;;;;;4931192;29;20215;-87
2021/01/05 09:01:55;;;;;;;14.93;8.13;;;3.60;99.90;;;;;;4935379;29;20427;-88
2021/01/05 09:04:21;;;;;;;13.73;8.47;;;3.60;99.90;;;;;;4931952;28;20451;-86
2021/01/05 09:06:51;;;;;;;15.17;8.77;;;3.70;99.90;;;;;;4934347;29;20188;-85
2021/01/05 09:09:19;;;;;;;14.07;8.83;;;3.50;99.90;;;;;;4933252;29;20192;-87
2021/01/05 09:11:53;;;;;;;12.73;8.40;;;3.60;99.90;;;;;;4932327;29;20510;-86
2021/01/05 09:14:22;;;;;;;13.50;8.30;;;3.40;99.90;;;;;;4935313;29;20748;-87
2021/01/05 09:16:53;;;;;;;14.93;8.20;;;3.40;99.90;;;;;;4934444;29;20447;-88
2021/01/05 09:19:19;;;;;;;17.37;9.10;;;3.50;99.90;;;;;;4919346;29;20550;-85
2021/01/05 09:21:47;;;;;;;15.47;8.33;;;3.40;99.90;;;;;;4934702;29;20522;-88
2021/01/05 09:24:18;;;;;;;12.93;8.70;;;3.50;99.90;;;;;;4935125;29;20247;-86
2021/01/05 09:26:44;;;;;;;13.50;9.20;;;3.60;99.90;;;;;;4929264;29;20511;-85
2021/01/05 09:29:12;;;;;;;13.73;8.20;;;3.70;99.90;;;;;;4936266;29;20474;-88
2021/01/05 09:31:49;;;;;;;17.23;8.73;;;3.80;99.90;;;;;;4928185;29;20448;-85
2021/01/05 09:34:16;;;;;;;17.10;10.00;;;3.80;99.90;;;;;;4932408;29;20440;-86
2021/01/05 09:36:44;;;;;;;15.23;9.40;;;3.90;99.90;;;;;;4931082;29;20432;-85
2021/01/05 09:39:13;;;;;;;13.73;8.53;;;3.90;99.90;;;;;;4923958;29;20456;-87
2021/01/05 09:41:45;;;;;;;14.07;9.87;;;3.90;99.90;;;;;;4928692;29;20428;-86
2021/01/05 09:44:11;;;;;;;16.47;8.50;;;3.80;99.90;;;;;;4928597;29;20605;-84
2021/01/05 09:46:51;;;;;;;14.50;9.17;;;3.70;99.90;;;;;;4933971;29;20523;-85
2021/01/05 09:49:17;;;;;;;13.77;8.67;;;3.70;99.90;;;;;;4945755;28;20982;-88
2021/01/05 09:51:57;;;;;;;16.07;9.20;;;3.60;99.90;;;;;;4931777;29;20432;-87
2021/01/05 09:54:23;;;;;;;15.70;9.07;;;3.40;99.90;;;;;;4926891;29;20507;-86
2021/01/05 09:57:02;;;;;;;14.27;9.83;;;3.60;99.90;;;;;;4932179;29;20500;-87
2021/01/05 09:59:39;;;;;;;14.13;9.17;;;3.60;99.90;;;;;;4919464;29;20470;-84
2021/01/05 10:02:06;;;;;;;13.07;8.70;;;3.70;99.90;;;;;;4921830;29;20450;-85
2021/01/05 10:04:50;;;;;;;13.60;8.93;;;3.80;99.90;;;;;;4928517;29;20435;-87
2021/01/05 10:07:16;;;;;;;13.23;8.93;;;3.80;99.90;;;;;;4914840;29;20421;-88
2021/01/05 10:09:49;;;;;;;13.20;8.33;;;3.70;99.90;;;;;;4932675;29;20427;-86
2021/01/05 10:12:17;;;;;;;13.37;9.17;;;3.70;99.90;;;;;;4930083;29;20486;-84
2021/01/05 10:14:45;;;;;;;14.40;8.70;;;3.70;99.90;;;;;;4931028;29;20439;-85
2021/01/05 10:17:11;;;;;;;15.37;9.60;;;4.30;99.90;;;;;;4926833;29;20432;-87
2021/01/05 10:19:37;;;;;;;16.63;10.60;;;3.50;99.90;;;;;;4929784;29;20922;-88
2021/01/05 10:22:09;;;;;;;15.80;8.87;;;3.40;99.90;;;;;;4914465;29;20264;-87
2021/01/05 10:24:40;;;;;;;13.13;9.30;;;4.70;99.90;;;;;;4933291;29;20183;-86
2021/01/05 10:27:08;;;;;;;15.00;8.80;;;3.50;99.90;;;;;;4929388;29;20431;-85
2021/01/05 10:29:49;;;;;;;13.67;8.20;;;3.60;99.90;;;;;;4915207;29;20503;-84
2021/01/05 10:32:22;;;;;;;23.13;11.07;;;3.60;99.90;;;;;;4933311;29;20475;-85
2021/01/05 10:34:51;;;;;;;15.27;10.00;;;3.50;99.90;;;;;;4931108;29;20511;-85
2021/01/05 10:37:17;;;;;;;16.33;10.97;;;3.60;99.90;;;;;;4929948;29;20450;-84
2021/01/05 10:39:50;;;;;;;15.37;10.80;;;3.50;99.90;;;;;;4916658;29;20503;-83
2021/01/05 10:42:32;;;;;;;;;;;;;;;;;;;;;
2021/01/05 10:45:09;;;;;;;9.70;8.17;;;3.40;99.90;;;;;;4927552;29;20443;-85
2021/01/05 10:47:52;;;;;;;19.10;9.80;;;3.30;99.90;;;;;;4943167;28;20436;-85
2021/01/05 10:50:58;;;;;;;13.30;7.23;;;3.30;99.90;;;;;;4915458;29;20552;-85
2021/01/05 10:53:26;;;;;;;15.73;9.47;;;3.20;99.90;;;;;;4936527;28;20483;-85
2021/01/05 10:56:07;;;;;;;14.70;9.70;;;3.30;99.90;;;;;;4932041;29;20444;-86
2021/01/05 10:58:37;;;;;;;19.90;10.03;;;3.30;99.90;;;;;;4931936;29;20439;-86
2021/01/05 11:01:03;;;;;;;18.50;11.40;;;3.40;99.90;;;;;;4931531;29;20443;-87
2021/01/05 11:03:35;;;;;;;17.40;10.27;;;3.50;99.90;;;;;;4931753;29;20558;-86
2021/01/05 11:06:05;;;;;;;14.03;9.83;;;3.60;99.90;;;;;;4932723;29;20222;-87
2021/01/05 11:08:31;;;;;;;16.00;9.07;;;3.70;99.90;;;;;;4916837;29;20529;-87
2021/01/05 11:10:57;;;;;;;16.50;10.27;;;3.70;99.90;;;;;;4917015;29;20452;-85
2021/01/05 11:13:23;;;;;;;17.87;10.87;;;3.80;99.90;;;;;;4929875;29;20895;-85
2021/01/05 11:15:49;;;;;;;21.23;11.10;;;3.80;99.90;;;;;;4928990;29;20570;-86
2021/01/05 11:18:17;;;;;;;18.63;10.17;;;3.90;99.90;;;;;;4930160;29;20500;-87
2021/01/05 11:20:43;;;;;;;16.00;9.80;;;3.90;99.90;;;;;;4930855;29;20721;-85
2021/01/05 11:23:09;;;;;;;19.73;10.20;;;3.90;99.90;;;;;;4932546;29;20455;-85
2021/01/05 11:25:35;;;;;;;18.27;10.53;;;3.90;99.90;;;;;;4930949;29;20290;-84
2021/01/05 11:28:02;;;;;;;13.10;9.17;;;3.90;99.90;;;;;;4940985;28;20543;-84
2021/01/05 11:30:34;;;;;;;19.57;10.20;;;3.90;99.90;;;;;;4921506;29;20456;-85
2021/01/05 11:33:00;;;;;;;18.43;10.00;;;3.90;99.90;;;;;;4912334;29;20572;-87
2021/01/05 11:35:25;;;;;;;17.10;9.90;;;4.00;99.90;;;;;;4931544;29;20457;-87
2021/01/05 11:37:56;;;;;;;18.30;9.80;;;3.90;99.90;;;;;;4941629;29;20247;-83
2021/01/05 11:40:22;;;;;;;17.57;9.53;;;4.00;99.90;;;;;;4949067;28;20278;-84
2021/01/05 11:43:05;;;;;;;18.23;9.63;;;4.00;99.90;;;;;;4946263;28;20480;-84
2021/01/05 11:45:31;;;;;;;13.67;9.07;;;4.00;99.90;;;;;;4937085;28;20714;-86
2021/01/05 11:48:04;;;;;;;17.77;9.47;;;4.00;99.90;;;;;;4924552;29;20448;-88
2021/01/05 11:50:36;;;;;;;13.50;10.00;;;4.00;99.90;;;;;;4923989;29;20191;-85
2021/01/05 11:53:01;;;;;;;18.80;10.83;;;4.00;99.90;;;;;;4923156;29;20475;-87
2021/01/05 11:55:30;;;;;;;20.03;12.20;;;4.00;99.90;;;;;;4925067;29;20495;-86
2021/01/05 11:57:58;;;;;;;18.03;11.50;;;4.00;99.90;;;;;;4921910;29;20195;-84
2021/01/05 12:00:26;;;;;;;20.33;10.00;;;4.00;99.90;;;;;;4924592;29;20975;-87
2021/01/05 12:02:55;;;;;;;16.30;11.37;;;4.00;99.90;;;;;;4917926;29;20550;-84
2021/01/05 12:05:21;;;;;;;17.93;11.40;;;4.00;99.90;;;;;;4920191;29;20540;-85
2021/01/05 12:07:46;;;;;;;20.80;11.23;;;4.00;99.90;;;;;;4927311;29;20423;-85
2021/01/05 12:10:21;;;;;;;20.90;10.83;;;4.00;99.90;;;;;;4945289;28;21066;-87
2021/01/05 12:12:46;;;;;;;15.03;8.63;;;4.00;99.90;;;;;;4912502;29;20222;-88
2021/01/05 12:15:13;;;;;;;16.93;10.00;;;4.10;99.90;;;;;;4904576;29;20431;-87
2021/01/05 12:17:41;;;;;;;14.83;9.07;;;4.10;99.90;;;;;;4926769;29;20463;-88
2021/01/05 12:20:09;;;;;;;15.90;9.93;;;4.10;99.90;;;;;;4926028;29;20436;-88
2021/01/05 12:22:35;;;;;;;21.37;10.53;;;4.20;99.90;;;;;;4928815;29;20483;-86
2021/01/05 12:25:01;;;;;;;18.93;10.30;;;4.10;99.90;;;;;;4928774;29;20447;-90
2021/01/05 12:27:38;;;;;;;17.17;9.70;;;4.20;99.90;;;;;;4927584;29;20196;-89
2021/01/05 12:30:09;;;;;;;13.80;9.50;;;4.20;99.90;;;;;;4926060;29;20192;-83
2021/01/05 12:32:54;;;;;;;14.77;10.47;;;4.30;99.90;;;;;;4939301;28;20637;-86
2021/01/05 12:35:28;;;;;;;13.43;9.73;;;4.20;99.90;;;;;;4920733;29;20490;-85
2021/01/05 12:37:57;;;;;;;13.37;8.27;;;4.20;99.90;;;;;;4926063;29;20438;-87
2021/01/05 12:40:22;;;;;;;14.73;9.93;;;4.30;99.90;;;;;;4925746;29;20428;-88
2021/01/05 12:42:48;;;;;;;12.57;8.40;;;4.20;99.90;;;;;;4927479;29;21016;-86
2021/01/05 12:45:16;;;;;;;15.40;8.87;;;4.30;99.90;;;;;;4927046;29;20207;-86
2021/01/05 12:48:02;;;;;;;15.07;9.57;;;4.20;99.90;;;;;;4927644;29;20180;-87
2021/01/05 12:50:47;;;;;;;18.47;10.20;;;4.20;99.90;;;;;;4914816;29;20455;-88
2021/01/05 12:53:21;;;;;;;11.97;8.33;;;4.20;99.90;;;;;;4957647;23;20548;-87
2021/01/05 12:55:52;;;;;;;15.83;9.90;;;4.20;99.90;;;;;;4946622;28;20468;-86
2021/01/05 12:58:21;;;;;;;16.37;10.70;;;4.30;99.90;;;;;;4946982;28;20477;-86
2021/01/05 13:00:59;;;;;;;20.23;9.80;;;4.20;99.90;;;;;;4947953;28;20422;-88
2021/01/05 13:04:03;;;;;;;17.47;10.60;;;4.30;99.90;;;;;;4931450;28;20502;-89
2021/01/05 13:09:37;;;;;;;18.30;10.43;;;4.40;99.90;;;;;;4947985;28;20893;-89
2021/01/05 13:12:06;;;;;;;16.13;9.37;;;4.40;99.90;;;;;;4927282;29;20483;-85
2021/01/05 13:15:20;;;;;;;15.03;9.20;;;4.30;99.90;;;;;;4955660;28;20415;-88
2021/01/05 13:18:46;;;;;;;16.43;10.30;;;4.30;99.90;;;;;;4886901;28;20467;-89
2021/01/05 13:22:02;;;;;;;18.03;9.70;;;4.30;99.90;;;;;;4908606;28;20446;-87
2021/01/05 13:25:07;;;;;;;13.13;7.63;;;4.20;99.90;;;;;;4931194;28;20443;-89